Terminal Aerodrome Forecast
Issued by NWS

Home | Current Version | Previous Version | Graphics & Text | Print | Product List | Glossary On
Versions: 1 2 3 4 5 6 7 8 9 10 11 12 13 14 15 16 17 18 19
000
FTUS43 KABR 011134
TAFPIR
TAF
KPIR 011134Z 0112/0212 20007KT P6SM VCTS FEW090 BKN120CB
     FM011500 21007KT P6SM FEW150
     FM011800 26011KT P6SM BKN250
     FM012200 33013KT P6SM SCT250
     FM020300 VRB06KT P6SM SCT250=

USA.gov is the U.S. government's official web portal to all federal, state and local government web resources and services.